Time;durP1;ratioP1;P1;durP2;ratioP2;P2;SDS_P1;SDS_P2;PMS_P1;PMS_P2;Temp;Humidity;BMP_temperature;BMP_pressure;BME280_temperature;BME280_humidity;BME280_pressure;Samples;Min_cycle;Max_cycle;Signal;HPM_P1;HPM_P2
2021/04/21 00:02:24;;;;;;;12.75;10.28;;;;;;;8.88;74.67;96833.41;1759175;79;21242;-83
2021/04/21 00:04:54;;;;;;;12.80;9.48;;;;;;;9.04;74.36;96851.00;1760339;79;21282;-82
2021/04/21 00:07:25;;;;;;;10.70;8.13;;;;;;;9.05;74.29;96844.75;1759892;81;21288;-79
2021/04/21 00:09:54;;;;;;;8.98;6.95;;;;;;;8.97;73.93;96848.46;1733368;81;21304;-82
2021/04/21 00:12:23;;;;;;;8.95;6.50;;;;;;;8.85;73.88;96847.63;1760412;82;21223;-82
2021/04/21 00:14:53;;;;;;;9.20;6.42;;;;;;;8.81;73.90;96850.16;1747372;82;21262;-79
2021/04/21 00:17:24;;;;;;;13.05;7.00;;;;;;;8.76;74.02;96845.70;1728442;82;21313;-79
2021/04/21 00:19:54;;;;;;;12.47;9.95;;;;;;;8.78;73.81;96854.78;1747465;82;21624;-79
2021/04/21 00:22:24;;;;;;;13.28;10.48;;;;;;;8.59;74.18;96819.41;1760206;81;21555;-83
2021/04/21 00:24:53;;;;;;;14.65;11.63;;;;;;;8.72;74.20;96832.47;1752872;81;22021;-80
2021/04/21 00:27:25;;;;;;;14.50;11.57;;;;;;;8.88;74.11;96847.86;1752453;79;21269;-80
2021/04/21 00:30:01;;;;;;;15.55;11.40;;;;;;;8.84;73.83;96849.89;1752434;82;21092;-84
2021/04/21 00:32:30;;;;;;;14.55;11.57;;;;;;;8.84;73.90;96851.70;1752207;82;21130;-82
2021/04/21 00:34:58;;;;;;;14.63;11.53;;;;;;;8.78;73.52;96847.75;1738960;82;21245;-85
2021/04/21 00:37:31;;;;;;;12.65;10.90;;;;;;;8.66;73.37;96849.53;1751643;82;21215;-86
2021/04/21 00:39:59;;;;;;;14.90;11.08;;;;;;;8.58;73.39;96849.28;1752268;82;21252;-85
2021/04/21 00:43:05;;;;;;;16.30;12.37;;;;;;;8.45;73.39;96858.52;1752529;82;21229;-87
2021/04/21 00:45:37;;;;;;;15.10;12.40;;;;;;;8.36;73.54;96854.81;1717714;82;21316;-82
2021/04/21 00:48:39;;;;;;;16.05;12.55;;;;;;;8.32;73.55;96856.47;1748330;82;21098;-81
2021/04/21 00:51:14;;;;;;;13.75;11.88;;;;;;;8.28;73.70;96857.17;1750974;79;21147;-86
2021/04/21 00:53:51;;;;;;;21.50;11.73;;;;;;;8.24;73.72;96853.09;1752505;80;21221;-85
2021/04/21 00:56:35;;;;;;;14.63;12.45;;;;;;;8.17;73.64;96851.39;1731426;82;21261;-85
2021/04/21 00:59:49;;;;;;;15.88;12.37;;;;;;;8.14;73.86;96849.02;1752610;80;21135;-83
2021/04/21 01:02:20;;;;;;;;;;;;;;;8.08;73.78;96850.30;1716683;82;21134;-86
2021/04/21 01:04:51;;;;;;;12.98;10.13;;;;;;;8.03;74.27;96852.91;1731397;80;20123;-82
2021/04/21 01:07:23;;;;;;;14.30;10.72;;;;;;;8.00;73.92;96853.12;1752652;82;21225;-84
2021/04/21 01:09:57;;;;;;;11.03;9.50;;;;;;;7.93;74.23;96847.02;1752620;80;21265;-81
2021/04/21 01:12:28;;;;;;;12.47;9.98;;;;;;;7.93;74.23;96847.02;1730197;79;21075;-85
2021/04/21 01:14:59;;;;;;;11.05;9.50;;;;;;;7.87;74.20;96834.36;1752754;82;21119;-86
2021/04/21 01:17:28;;;;;;;11.55;8.13;;;;;;;7.96;74.36;96855.99;1752740;79;21227;-84
2021/04/21 01:20:21;;;;;;;8.05;6.87;;;;;;;7.98;74.54;96854.55;1752848;82;21211;-82
2021/04/21 01:23:25;;;;;;;8.25;6.60;;;;;;;8.02;74.56;96854.70;1752679;79;21241;-82
2021/04/21 01:26:22;;;;;;;8.70;6.87;;;;;;;8.09;74.52;96853.30;1752417;79;21211;-82
2021/04/21 01:29:01;;;;;;;8.80;6.80;;;;;;;8.09;74.52;96853.30;1663818;83;21161;-84
2021/04/21 01:32:00;;;;;;;9.03;6.62;;;;;;;8.18;74.71;96853.56;1671037;83;21251;-84
2021/04/21 01:34:32;;;;;;;9.90;7.10;;;;;;;8.20;74.53;96856.42;1671219;86;21290;-83
2021/04/21 01:37:04;;;;;;;9.68;7.42;;;;;;;8.22;74.58;96856.30;1670798;86;21336;-83
2021/04/21 01:39:36;;;;;;;11.00;6.85;;;;;;;8.32;74.50;96856.47;1671185;84;21301;-85
2021/04/21 01:42:06;;;;;;;9.65;7.37;;;;;;;8.32;74.50;96856.47;1670943;84;21266;-85
2021/04/21 01:44:41;;;;;;;9.60;7.78;;;;;;;8.33;74.52;96860.28;1670801;86;21152;-83
2021/04/21 01:47:15;;;;;;;12.33;7.95;;;;;;;8.33;74.39;96855.03;1703053;79;21263;-83
2021/04/21 01:49:51;;;;;;;10.63;8.03;;;;;;;8.38;74.37;96853.37;1752654;79;21081;-81
2021/04/21 01:52:40;;;;;;;11.65;8.45;;;;;;;8.40;74.48;96847.53;1752841;82;21250;-81
2021/04/21 01:55:25;;;;;;;10.23;7.45;;;;;;;8.53;74.65;96853.58;1752600;79;21249;-86
2021/04/21 01:58:10;;;;;;;10.25;7.83;;;;;;;8.56;74.27;96854.64;1752784;79;21325;-81
2021/04/21 02:00:45;;;;;;;11.12;7.33;;;;;;;8.59;73.98;96854.41;1752785;79;21112;-81
2021/04/21 02:03:23;;;;;;;10.30;7.62;;;;;;;8.58;73.74;96852.73;1752625;79;21132;-82
2021/04/21 02:06:13;;;;;;;11.88;7.70;;;;;;;8.59;73.85;96858.35;1752369;80;21294;-80
2021/04/21 02:09:24;;;;;;;8.48;7.40;;;;;;;8.61;73.54;96853.46;1752176;82;21159;-79
2021/04/21 02:12:20;;;;;;;10.35;7.67;;;;;;;8.59;73.21;96854.88;1751539;82;21237;-80
2021/04/21 02:15:19;;;;;;;11.18;8.33;;;;;;;8.59;73.09;96859.67;1752199;82;21146;-80
2021/04/21 02:18:38;;;;;;;10.38;8.00;;;;;;;8.57;72.95;96857.62;1752117;81;21285;-79
2021/04/21 02:21:49;;;;;;;11.90;8.73;;;;;;;8.55;72.91;96856.90;1752398;82;21229;-81
2021/04/21 02:25:00;;;;;;;9.33;7.92;;;;;;;8.51;72.56;96852.00;1752669;82;21114;-86
2021/04/21 02:27:51;;;;;;;8.68;6.95;;;;;;;8.40;72.27;96851.47;1752722;82;21308;-86
2021/04/21 02:30:36;;;;;;;9.90;7.40;;;;;;;8.21;72.26;96857.28;1752601;80;21256;-80
2021/04/21 02:33:25;;;;;;;10.25;8.00;;;;;;;8.10;72.31;96852.34;1752699;82;21199;-81
2021/04/21 02:35:59;;;;;;;9.25;7.53;;;;;;;8.10;72.31;96852.34;1752701;79;21230;-82
2021/04/21 02:38:47;;;;;;;9.73;8.00;;;;;;;8.07;72.19;96859.13;1752642;79;21140;-82
2021/04/21 02:41:32;;;;;;;9.78;8.03;;;;;;;7.98;72.21;96859.31;1752466;79;21250;-82
2021/04/21 02:44:12;;;;;;;12.07;8.20;;;;;;;7.92;72.34;96864.20;1752636;79;21223;-82
2021/04/21 02:47:08;;;;;;;13.10;8.00;;;;;;;7.85;72.28;96859.02;1752557;82;21156;-84
2021/04/21 02:50:20;;;;;;;12.20;9.45;;;;;;;7.81;72.54;96864.97;1752607;79;21214;-83
2021/04/21 02:53:02;;;;;;;13.00;9.38;;;;;;;7.71;72.98;96874.45;1752543;82;21230;-85
2021/04/21 02:55:54;;;;;;;10.95;8.35;;;;;;;7.71;72.98;96874.45;1752565;79;21136;-83
2021/04/21 02:58:34;;;;;;;12.18;9.05;;;;;;;7.70;72.73;96873.63;1752594;82;21119;-85
2021/04/21 03:01:13;;;;;;;9.83;8.33;;;;;;;7.69;72.81;96868.50;1751465;79;21259;-83
2021/04/21 03:04:25;;;;;;;11.70;9.20;;;;;;;7.64;72.82;96870.14;1698036;83;21275;-81
2021/04/21 03:06:56;;;;;;;11.85;8.58;;;;;;;7.65;72.84;96876.58;1700415;83;21113;-82
2021/04/21 03:09:37;;;;;;;10.35;7.83;;;;;;;7.68;72.86;96881.25;1674947;84;21258;-83
2021/04/21 03:12:08;;;;;;;10.80;7.40;;;;;;;7.70;73.04;96881.98;1672721;85;21172;-86
2021/04/21 03:14:40;;;;;;;13.25;7.80;;;;;;;7.75;73.14;96885.09;1672532;85;21176;-82
2021/04/21 03:17:10;;;;;;;11.03;8.28;;;;;;;7.81;73.27;96882.02;1672557;84;21112;-81
2021/04/21 03:19:48;;;;;;;15.30;7.62;;;;;;;7.85;73.37;96879.55;1672514;84;21258;-82
2021/04/21 03:22:31;;;;;;;9.63;7.90;;;;;;;8.02;73.65;96887.52;1856335;77;22849;-86
2021/04/21 03:25:13;;;;;;;13.18;7.60;;;;;;;8.05;73.48;96888.59;1832406;78;21113;-86
2021/04/21 03:27:51;;;;;;;11.20;7.20;;;;;;;8.08;73.28;96890.99;1832615;76;21098;-83
2021/04/21 03:30:24;;;;;;;12.90;7.33;;;;;;;8.15;73.35;96890.53;1832429;77;21121;-83
2021/04/21 03:33:09;;;;;;;8.78;7.60;;;;;;;8.28;73.42;96894.77;1832626;78;21173;-84
2021/04/21 03:35:39;;;;;;;9.70;6.95;;;;;;;8.39;73.52;96895.30;1807521;78;21260;-79
2021/04/21 03:38:10;;;;;;;9.78;6.87;;;;;;;8.48;73.41;96896.41;1832395;78;21129;-83
2021/04/21 03:40:40;;;;;;;8.85;6.55;;;;;;;8.53;73.35;96894.75;1832401;76;21102;-81
2021/04/21 03:43:09;;;;;;;8.53;7.15;;;;;;;8.61;73.20;96899.44;1832347;78;21233;-82
2021/04/21 03:45:42;;;;;;;10.90;7.12;;;;;;;8.66;73.00;96902.55;1832490;76;21094;-82
2021/04/21 03:48:10;;;;;;;9.90;6.45;;;;;;;8.72;72.98;96904.23;1832125;78;21122;-82
2021/04/21 03:50:38;;;;;;;9.95;7.47;;;;;;;8.80;72.84;96903.66;1832501;76;21200;-81
2021/04/21 03:53:17;;;;;;;10.80;7.95;;;;;;;8.81;72.50;96897.46;1734986;82;21264;-82
2021/04/21 03:55:54;;;;;;;9.78;7.67;;;;;;;8.87;72.47;96906.18;1735180;82;21261;-82
2021/04/21 03:58:25;;;;;;;11.38;7.30;;;;;;;8.96;72.39;96909.88;1735121;81;21194;-85
2021/04/21 04:01:21;;;;;;;7.80;6.72;;;;;;;9.01;72.36;96909.06;1726804;82;21182;-84
2021/04/21 04:03:56;;;;;;;10.48;7.58;;;;;;;9.05;71.94;96915.74;1734700;81;21230;-80
2021/04/21 04:06:46;;;;;;;10.20;7.65;;;;;;;9.08;71.54;96915.16;1792133;80;23583;-81
2021/04/21 04:09:22;;;;;;;12.45;7.53;;;;;;;9.00;71.63;96917.90;1766583;81;21254;-81
2021/04/21 04:11:58;;;;;;;8.85;7.20;;;;;;;8.98;71.44;96918.48;1763573;78;21084;-86
2021/04/21 04:14:31;;;;;;;10.35;7.70;;;;;;;8.96;71.26;96921.70;1756426;82;21234;-83
2021/04/21 04:17:02;;;;;;;10.03;7.08;;;;;;;8.93;71.24;96923.73;1756579;80;21328;-82
2021/04/21 04:19:39;;;;;;;10.20;8.05;;;;;;;8.87;71.01;96927.20;1728837;80;21253;-84
2021/04/21 04:22:20;;;;;;;9.98;7.53;;;;;;;8.83;71.07;96925.75;1684974;84;21274;-80
2021/04/21 04:24:54;;;;;;;13.70;8.73;;;;;;;8.82;71.08;96929.82;1683546;84;21249;-80
2021/04/21 04:27:29;;;;;;;8.98;7.45;;;;;;;8.75;70.96;96928.98;1714211;83;21131;-80
2021/04/21 04:30:00;;;;;;;10.43;7.05;;;;;;;8.72;71.06;96929.20;1726494;83;21182;-81
2021/04/21 04:32:28;;;;;;;10.40;7.42;;;;;;;8.64;71.09;96926.31;1724478;83;21246;-81
2021/04/21 04:34:59;;;;;;;8.88;7.53;;;;;;;8.63;71.22;96927.76;1650819;87;21183;-80
2021/04/21 04:37:30;;;;;;;12.00;7.00;;;;;;;8.64;71.34;96932.03;1676885;86;21262;-81
2021/04/21 04:40:01;;;;;;;11.35;6.47;;;;;;;8.67;71.51;96937.06;1652764;82;21272;-80
2021/04/21 04:42:31;;;;;;;29.20;9.70;;;;;;;8.70;71.65;96944.73;1652610;84;21128;-79
2021/04/21 04:45:01;;;;;;;9.23;6.47;;;;;;;8.75;71.98;96938.18;1678932;83;21141;-80
2021/04/21 04:47:42;;;;;;;10.50;6.97;;;;;;;8.84;72.00;96941.06;1678308;86;21259;-80
2021/04/21 04:50:16;;;;;;;12.65;6.95;;;;;;;8.93;71.77;96941.68;1678766;86;21185;-82
2021/04/21 04:52:48;;;;;;;7.83;6.42;;;;;;;9.04;71.83;96943.48;1678481;86;21136;-80
2021/04/21 04:55:19;;;;;;;7.85;6.58;;;;;;;9.15;71.67;96946.13;1676779;83;21177;-78
2021/04/21 04:57:51;;;;;;;9.08;6.65;;;;;;;9.29;71.69;96948.16;1651506;86;21160;-81
2021/04/21 05:00:24;;;;;;;11.55;6.58;;;;;;;9.44;71.42;96947.44;1656144;86;21264;-80
2021/04/21 05:03:26;;;;;;;8.70;6.33;;;;;;;9.57;71.35;96943.37;1678812;81;21260;-85
2021/04/21 05:05:57;;;;;;;9.38;7.00;;;;;;;9.74;70.96;96945.99;1629090;86;21302;-87
2021/04/21 05:08:38;;;;;;;11.97;7.70;;;;;;;9.86;70.76;96948.98;1660705;86;21193;-81
2021/04/21 05:11:09;;;;;;;11.30;7.97;;;;;;;10.02;70.79;96953.86;1724933;82;21168;-84
2021/04/21 05:13:51;;;;;;;10.35;6.85;;;;;;;10.29;70.92;96956.04;1725065;83;21322;-85
2021/04/21 05:16:36;;;;;;;9.43;6.53;;;;;;;10.85;71.00;96954.14;1724347;83;21144;-90
2021/04/21 05:19:31;;;;;;;6.92;5.90;;;;;;;11.29;70.03;96954.45;1717484;82;21221;-86
2021/04/21 05:22:27;;;;;;;7.45;6.05;;;;;;;11.61;69.40;96953.00;1701793;83;21142;-81
2021/04/21 05:25:26;;;;;;;7.85;6.40;;;;;;;11.90;68.28;96954.08;1713477;83;21286;-82
2021/04/21 05:28:12;;;;;;;9.28;6.70;;;;;;;12.11;67.14;96963.27;1722470;83;21125;-83
2021/04/21 05:31:12;;;;;;;8.20;7.33;;;;;;;12.55;67.19;96961.58;1713808;83;21560;-85
2021/04/21 05:34:14;;;;;;;9.45;7.78;;;;;;;12.94;66.11;96962.88;1718928;83;21128;-92
2021/04/21 05:37:10;;;;;;;10.82;7.33;;;;;;;13.06;63.88;96968.34;1720111;83;21131;-90
2021/04/21 05:40:23;;;;;;;10.68;8.63;;;;;;;13.16;63.39;96972.31;1721012;82;21148;-85
2021/04/21 05:43:46;;;;;;;14.15;10.45;;;;;;;13.21;63.50;96968.73;1654752;85;21610;-88
2021/04/21 05:46:51;;;;;;;14.78;10.05;;;;;;;13.18;62.57;96973.48;1649498;85;21187;-86
2021/04/21 05:49:40;;;;;;;14.10;9.33;;;;;;;13.30;60.18;96977.64;1809904;79;22875;-82
2021/04/21 05:52:49;;;;;;;17.75;9.05;;;;;;;13.23;61.98;96980.48;1809434;78;21572;-84
2021/04/21 05:55:44;;;;;;;13.30;9.53;;;;;;;13.17;61.97;96975.78;1799955;78;21552;-82
2021/04/21 05:58:37;;;;;;;14.60;9.88;;;;;;;13.09;62.04;96981.30;1749506;81;21592;-77
2021/04/21 06:01:36;;;;;;;12.13;8.93;;;;;;;13.16;62.08;96976.28;1799045;78;21222;-79
2021/04/21 06:04:06;;;;;;;11.80;10.15;;;;;;;13.31;62.30;96981.11;1817092;78;21162;-77
2021/04/21 06:06:33;;;;;;;18.37;11.03;;;;;;;13.23;61.26;96982.66;1798775;79;21259;-79
2021/04/21 06:09:09;;;;;;;11.45;9.60;;;;;;;13.30;60.99;96980.29;1799832;78;21215;-77
2021/04/21 06:11:38;;;;;;;15.18;9.23;;;;;;;13.48;61.22;96984.87;1805152;78;21138;-78
2021/04/21 06:14:08;;;;;;;15.03;8.63;;;;;;;13.48;60.09;96990.98;1799526;79;21278;-78
2021/04/21 06:16:37;;;;;;;12.90;9.25;;;;;;;13.32;59.82;96984.10;1798515;79;21130;-80
2021/04/21 06:19:08;;;;;;;9.95;8.13;;;;;;;13.10;59.89;96986.94;1808079;79;21138;-77
2021/04/21 06:21:39;;;;;;;11.53;9.78;;;;;;;13.03;59.94;96985.84;1808817;78;21144;-79
2021/04/21 06:24:26;;;;;;;10.68;8.45;;;;;;;12.96;60.25;96986.04;1800353;79;21126;-79
2021/04/21 06:27:11;;;;;;;;;;;;;;;13.08;60.13;96988.89;1804733;79;21669;-78
2021/04/21 06:29:40;;;;;;;10.45;8.20;;;;;;;13.08;59.98;96992.03;1803129;79;20158;-77
2021/04/21 06:32:13;;;;;;;14.53;8.53;;;;;;;13.05;60.56;96991.80;1806347;78;21615;-85
2021/04/21 06:34:41;;;;;;;15.58;9.08;;;;;;;13.03;60.20;96988.96;1798722;79;21108;-78
2021/04/21 06:37:10;;;;;;;13.95;8.55;;;;;;;13.06;59.97;96993.48;1805524;79;21158;-93
2021/04/21 06:39:37;;;;;;;14.13;8.00;;;;;;;13.15;59.90;96990.95;1825993;78;21104;-92
2021/04/21 06:42:06;;;;;;;11.22;7.55;;;;;;;13.24;59.53;96988.78;1818607;78;21091;-87
2021/04/21 06:47:25;;;;;;;16.02;8.50;;;;;;;13.25;57.85;96989.13;1820212;77;23022;-78
2021/04/21 06:50:04;;;;;;;12.37;9.30;;;;;;;12.86;58.22;96995.79;1799676;78;21108;-80
2021/04/21 06:52:37;;;;;;;11.90;7.58;;;;;;;12.75;58.71;96996.31;1800885;79;21282;-86
2021/04/21 06:55:09;;;;;;;9.78;7.80;;;;;;;12.61;57.69;96998.87;1800968;80;21219;-79
2021/04/21 06:57:38;;;;;;;12.82;6.70;;;;;;;12.34;57.99;96998.21;1800372;78;21119;-83
2021/04/21 07:00:19;;;;;;;10.15;6.92;;;;;;;12.20;58.56;97000.76;1800172;78;21284;-78
2021/04/21 07:02:52;;;;;;;11.55;7.67;;;;;;;12.09;58.02;96996.90;1813534;78;21576;-80
2021/04/21 07:05:40;;;;;;;13.45;7.92;;;;;;;12.19;59.15;96996.44;1795401;80;21153;-78
2021/04/21 07:08:14;;;;;;;13.55;8.88;;;;;;;12.56;58.72;96994.98;1796661;78;21170;-80
2021/04/21 07:10:51;;;;;;;13.85;8.45;;;;;;;13.09;58.00;96999.83;1796975;80;21582;-78
2021/04/21 07:13:33;;;;;;;9.98;8.85;;;;;;;13.69;58.13;97001.36;1799268;78;21147;-78
2021/04/21 07:16:06;;;;;;;9.30;8.18;;;;;;;14.26;56.15;96996.91;1828217;78;21135;-79
2021/04/21 07:18:38;;;;;;;9.38;6.42;;;;;;;14.49;54.04;97005.28;1791787;80;21282;-78
2021/04/21 07:21:08;;;;;;;12.88;8.98;;;;;;;14.39;53.58;97004.51;1773467;81;21108;-76
2021/04/21 07:23:39;;;;;;;13.05;7.50;;;;;;;14.31;54.76;97002.12;1772400;81;21159;-89
2021/04/21 07:26:07;;;;;;;9.00;7.12;;;;;;;14.70;53.50;97005.02;1744600;82;21118;-90
2021/04/21 07:28:38;;;;;;;7.17;5.35;;;;;;;14.83;53.11;97011.27;1775091;81;21572;-92
2021/04/21 07:31:18;;;;;;;9.40;5.30;;;;;;;14.87;51.12;97003.35;1774765;80;21237;-92
2021/04/21 07:33:50;;;;;;;6.60;5.20;;;;;;;14.89;50.79;97008.02;1785185;80;21250;-90
2021/04/21 07:36:27;;;;;;;7.15;5.03;;;;;;;15.31;51.31;97007.84;1770985;80;21133;-91
2021/04/21 07:39:09;;;;;;;8.13;6.00;;;;;;;15.83;50.65;97008.29;1785724;80;21214;-85
2021/04/21 07:41:41;;;;;;;5.10;3.80;;;;;;;16.24;50.88;97009.83;1780763;79;21162;-92
2021/04/21 07:44:51;;;;;;;6.80;4.70;;;;;;;16.85;49.11;97010.94;1750279;81;21155;-80
2021/04/21 07:47:23;;;;;;;5.03;4.20;;;;;;;17.41;48.98;97010.30;1717983;82;21171;-80
2021/04/21 07:49:58;;;;;;;9.85;4.65;;;;;;;18.07;46.79;97010.16;1707158;83;21151;-81
2021/04/21 07:52:34;;;;;;;6.47;4.47;;;;;;;18.36;46.60;97009.20;1704918;83;21154;-80
2021/04/21 07:55:17;;;;;;;6.92;5.70;;;;;;;18.44;46.92;97010.98;1722787;82;21157;-81
2021/04/21 07:57:59;;;;;;;5.45;4.50;;;;;;;18.15;44.37;97007.97;1756661;80;21112;-80
2021/04/21 08:00:30;;;;;;;6.92;4.37;;;;;;;17.51;43.33;97013.28;1711455;82;21271;-81
2021/04/21 08:03:00;;;;;;;5.60;3.80;;;;;;;17.27;43.99;97017.13;1706391;82;21284;-81
2021/04/21 08:05:28;;;;;;;5.50;4.03;;;;;;;16.82;42.98;97013.11;1726457;82;21171;-81
2021/04/21 08:08:01;;;;;;;8.50;4.35;;;;;;;16.49;44.65;97019.72;1752628;81;21139;-81
2021/04/21 08:10:37;;;;;;;6.33;2.90;;;;;;;16.46;44.84;97014.70;1755548;82;21138;-81
2021/04/21 08:13:04;;;;;;;6.40;2.83;;;;;;;16.43;44.68;97013.69;1761578;81;21154;-81
2021/04/21 08:15:36;;;;;;;4.97;3.15;;;;;;;16.23;44.69;97015.33;1700798;83;21184;-83
2021/04/21 08:18:11;;;;;;;6.80;3.85;;;;;;;16.30;44.32;97015.48;1753348;81;21696;-83
2021/04/21 08:20:53;;;;;;;6.22;3.40;;;;;;;16.76;44.15;97018.59;1731036;81;21154;-83
2021/04/21 08:23:25;;;;;;;6.40;3.52;;;;;;;17.20;43.17;97019.33;1769363;81;21277;-84
2021/04/21 08:25:53;;;;;;;7.25;3.60;;;;;;;17.48;43.21;97019.78;1725081;82;21197;-83
2021/04/21 08:28:23;;;;;;;6.05;3.75;;;;;;;17.70;42.56;97014.76;1752141;81;21124;-91
2021/04/21 08:31:01;;;;;;;6.12;3.80;;;;;;;17.90;40.68;97013.86;1759674;81;21579;-87
2021/04/21 08:33:32;;;;;;;5.72;4.00;;;;;;;17.98;41.86;97005.86;1722685;82;21139;-80
2021/04/21 08:36:00;;;;;;;3.08;2.50;;;;;;;18.19;40.98;97004.45;1714923;82;21572;-80
2021/04/21 08:38:28;;;;;;;4.45;3.90;;;;;;;18.04;38.28;97006.52;1722801;82;21211;-78
2021/04/21 08:40:55;;;;;;;7.85;4.60;;;;;;;17.31;38.09;97008.30;1771956;81;21221;-78
2021/04/21 08:43:24;;;;;;;4.33;3.90;;;;;;;16.98;40.07;97007.00;1724619;82;21162;-78
2021/04/21 08:45:53;;;;;;;5.05;4.30;;;;;;;16.85;40.94;97007.46;1770283;80;21504;-80
2021/04/21 08:48:22;;;;;;;7.35;4.40;;;;;;;16.55;41.08;97005.27;1811804;79;21138;-82
2021/04/21 08:50:50;;;;;;;4.87;4.10;;;;;;;16.48;41.45;97007.41;1808010;78;21122;-78
2021/04/21 08:53:20;;;;;;;6.53;4.17;;;;;;;16.38;41.67;97007.53;1791423;80;21231;-81
2021/04/21 08:55:50;;;;;;;6.33;2.92;;;;;;;16.24;41.46;97007.66;1787049;79;21158;-78
2021/04/21 08:58:22;;;;;;;5.42;4.80;;;;;;;16.13;41.78;97007.45;1808640;79;21084;-83
2021/04/21 09:00:50;;;;;;;5.03;4.10;;;;;;;15.81;42.09;97010.30;1786358;79;21527;-78
2021/04/21 09:03:19;;;;;;;9.35;4.80;;;;;;;15.53;42.00;97005.16;1780002;80;21676;-81
2021/04/21 09:05:46;;;;;;;8.95;4.17;;;;;;;15.48;42.74;97006.63;1789498;78;21177;-77
2021/04/21 09:08:13;;;;;;;8.60;4.35;;;;;;;15.58;43.21;97006.84;1797982;79;21569;-85
2021/04/21 09:10:43;;;;;;;5.55;4.70;;;;;;;15.58;41.68;97004.19;1757274;80;21164;-83
2021/04/21 09:13:15;;;;;;;6.92;4.55;;;;;;;15.36;42.04;97002.07;1809925;79;21226;-81
2021/04/21 09:15:45;;;;;;;4.35;3.90;;;;;;;15.36;42.95;97004.22;1821013;79;21135;-89
2021/04/21 09:18:16;;;;;;;6.28;4.42;;;;;;;15.49;41.03;97000.32;1793394;79;21286;-92
2021/04/21 09:20:46;;;;;;;8.90;6.83;;;;;;;15.04;41.69;97002.16;1792441;80;21283;-92
2021/04/21 09:23:14;;;;;;;12.50;5.90;;;;;;;14.68;43.21;96995.89;1797528;79;21270;-88
2021/04/21 09:25:56;;;;;;;5.83;4.85;;;;;;;14.60;43.96;97004.22;1798970;80;21274;-93
2021/04/21 09:28:56;;;;;;;5.45;4.10;;;;;;;14.74;44.30;97006.39;1806506;79;21141;-92
2021/04/21 09:31:34;;;;;;;4.70;3.80;;;;;;;14.90;44.93;97007.00;1786031;79;21325;-92
2021/04/21 09:34:16;;;;;;;4.75;3.37;;;;;;;15.11;45.13;97008.51;1794315;79;21148;-83
2021/04/21 09:36:48;;;;;;;4.95;3.70;;;;;;;15.20;45.04;97002.27;1783361;80;21254;-90
2021/04/21 09:39:25;;;;;;;7.10;3.85;;;;;;;15.13;45.35;97003.88;1769213;81;21179;-90
2021/04/21 09:42:03;;;;;;;3.80;3.33;;;;;;;15.08;45.43;96997.71;1769457;80;21279;-91
2021/04/21 09:44:31;;;;;;;4.17;2.70;;;;;;;14.97;45.73;97012.06;1770105;80;21251;-92
2021/04/21 09:47:01;;;;;;;2.75;1.98;;;;;;;14.89;45.77;97008.50;1770298;81;21305;-93
2021/04/21 09:49:40;;;;;;;3.35;2.40;;;;;;;14.77;45.45;97015.35;1726208;81;21217;-93
2021/04/21 09:52:28;;;;;;;4.03;2.50;;;;;;;14.57;45.55;97021.27;1769674;80;21704;-90
2021/04/21 09:55:04;;;;;;;6.15;3.20;;;;;;;14.27;44.95;97019.80;1815807;79;21258;-83
2021/04/21 09:57:34;;;;;;;4.55;3.10;;;;;;;13.76;46.19;97015.36;1822089;79;21293;-88
2021/04/21 10:00:09;;;;;;;5.53;2.98;;;;;;;13.35;47.26;97030.16;1822070;79;21235;-86
2021/04/21 10:02:43;;;;;;;4.70;2.58;;;;;;;12.83;47.88;97025.19;1821489;78;21689;-83
2021/04/21 10:05:41;;;;;;;11.03;4.83;;;;;;;12.26;51.32;97031.09;1811164;79;21156;-88
2021/04/21 10:08:53;;;;;;;6.85;5.33;;;;;;;11.38;53.85;97056.12;1825308;77;21294;-88
2021/04/21 10:12:48;;;;;;;7.28;4.80;;;;;;;10.28;61.03;97068.14;1825362;77;21130;-87
2021/04/21 10:16:10;;;;;;;7.45;3.02;;;;;;;9.48;66.63;97076.00;1744348;80;21407;-83
2021/04/21 10:19:28;;;;;;;13.13;5.75;;;;;;;8.86;68.30;97079.30;1791764;80;28178;-82
2021/04/21 10:26:21;;;;;;;7.08;4.60;;;;;;;8.43;70.42;97088.96;1639392;85;21243;-82
2021/04/21 10:29:59;;;;;;;6.58;5.20;;;;;;;8.39;72.17;97093.60;1828187;77;22683;-81
2021/04/21 10:33:18;;;;;;;6.47;3.20;;;;;;;8.37;69.23;97094.18;1761728;81;21120;-81
2021/04/21 10:36:21;;;;;;;3.20;2.58;;;;;;;8.45;73.73;97100.17;1782518;79;22679;-80
2021/04/21 10:38:55;;;;;;;5.12;3.40;;;;;;;8.41;70.01;97102.19;1719881;82;21215;-79
2021/04/21 10:41:44;;;;;;;4.20;3.22;;;;;;;8.47;69.04;97105.34;1755094;80;21274;-79
2021/04/21 10:44:19;;;;;;;4.92;2.92;;;;;;;8.52;69.07;97105.87;1757639;82;21187;-80
2021/04/21 10:47:08;;;;;;;7.60;2.77;;;;;;;8.52;68.22;97106.72;1757501;81;21274;-83
2021/04/21 10:50:00;;;;;;;4.15;3.22;;;;;;;8.56;69.44;97119.16;1757671;81;21126;-81
2021/04/21 10:52:33;;;;;;;3.55;2.90;;;;;;;8.51;69.90;97106.81;1757482;82;21262;-79
2021/04/21 10:55:14;;;;;;;5.20;3.92;;;;;;;8.40;71.73;97108.38;1756678;81;21176;-79
2021/04/21 10:58:04;;;;;;;7.67;4.17;;;;;;;8.33;70.11;97109.77;1754300;82;21115;-80
2021/04/21 11:00:35;;;;;;;5.10;3.77;;;;;;;8.26;70.06;97116.42;1756260;82;21136;-80
2021/04/21 11:03:20;;;;;;;5.22;3.58;;;;;;;8.20;70.25;97127.36;1757317;82;21155;-80
2021/04/21 11:05:52;;;;;;;5.25;3.45;;;;;;;8.11;74.50;97144.13;1756810;81;21251;-79
2021/04/21 11:08:23;;;;;;;5.37;4.03;;;;;;;8.10;71.35;97149.02;1756983;79;21128;-78
2021/04/21 11:11:02;;;;;;;7.37;4.50;;;;;;;8.13;72.17;97159.28;1758136;79;21073;-79
2021/04/21 11:13:39;;;;;;;4.92;4.42;;;;;;;8.22;72.18;97150.39;1758183;79;21085;-79
2021/04/21 11:16:24;;;;;;;5.37;4.30;;;;;;;8.30;71.99;97155.97;1757997;81;21282;-79
2021/04/21 11:18:53;;;;;;;7.12;4.80;;;;;;;8.38;71.43;97154.95;1723427;80;21230;-78
2021/04/21 11:21:28;;;;;;;6.35;4.80;;;;;;;8.49;71.74;97162.10;1701789;82;21271;-81
2021/04/21 11:24:07;;;;;;;6.17;4.37;;;;;;;8.58;72.34;97144.86;1721294;81;21247;-84
2021/04/21 11:26:44;;;;;;;6.30;4.72;;;;;;;8.62;72.47;97144.98;1725891;81;21259;-87
2021/04/21 11:29:24;;;;;;;6.50;4.60;;;;;;;8.75;73.25;97149.73;1724769;83;21347;-79
2021/04/21 11:31:58;;;;;;;5.33;3.77;;;;;;;8.94;72.81;97144.92;1722771;83;21231;-79
2021/04/21 11:34:35;;;;;;;6.85;4.50;;;;;;;9.06;72.65;97138.28;1696594;82;21139;-81
2021/04/21 11:37:17;;;;;;;6.03;3.90;;;;;;;9.17;72.57;97144.55;1676542;84;21254;-85
2021/04/21 11:39:57;;;;;;;5.53;3.58;;;;;;;9.30;73.39;97140.53;1663460;86;21300;-84
2021/04/21 11:42:39;;;;;;;6.42;3.72;;;;;;;9.39;73.08;97138.53;1701112;84;21653;-83
2021/04/21 11:45:26;;;;;;;4.67;3.50;;;;;;;9.45;73.87;97139.41;1691301;82;21309;-83
2021/04/21 11:48:03;;;;;;;8.90;4.40;;;;;;;9.56;73.05;97140.39;1672661;84;21301;-83
2021/04/21 11:50:34;;;;;;;4.58;3.27;;;;;;;9.69;73.04;97135.40;1664961;85;21282;-84
2021/04/21 11:53:15;;;;;;;5.58;3.42;;;;;;;9.81;73.01;97129.67;1717337;84;21278;-92
2021/04/21 11:58:37;;;;;;;5.25;3.55;;;;;;;10.01;72.72;97125.98;1700628;80;21310;-84
2021/04/21 12:01:11;;;;;;;4.17;3.55;;;;;;;10.14;72.63;97116.64;1679735;84;21282;-86
2021/04/21 12:03:44;;;;;;;4.42;3.02;;;;;;;10.28;72.39;97111.11;1663533;86;21165;-84
2021/04/21 12:06:17;;;;;;;6.22;3.90;;;;;;;10.40;72.44;97112.45;1693778;83;21719;-79
2021/04/21 12:08:51;;;;;;;4.28;3.40;;;;;;;10.48;72.07;97103.45;1672860;84;21181;-83
2021/04/21 12:11:33;;;;;;;5.17;3.75;;;;;;;10.61;72.27;97105.48;1670415;86;21589;-89
2021/04/21 12:13:57;;;;;;;4.65;3.83;;;;;;;10.72;71.72;97103.75;1698002;85;21299;-84
2021/04/21 12:16:28;;;;;;;4.12;3.00;;;;;;;10.85;72.13;97100.48;1668720;86;21228;-88
2021/04/21 12:18:58;;;;;;;4.15;3.00;;;;;;;10.96;71.59;97095.65;1699324;84;21311;-91
2021/04/21 12:21:31;;;;;;;6.80;3.22;;;;;;;11.06;71.77;97095.25;1693191;84;21301;-84
2021/04/21 12:24:05;;;;;;;7.70;3.08;;;;;;;11.16;71.11;97087.43;1693461;84;21264;-84
2021/04/21 12:26:37;;;;;;;4.30;3.27;;;;;;;11.29;70.80;97085.06;1660926;86;21210;-84
2021/04/21 12:29:20;;;;;;;3.72;3.22;;;;;;;11.48;70.62;97083.06;1665428;86;21319;-90
2021/04/21 12:31:49;;;;;;;4.15;3.30;;;;;;;11.77;71.23;97079.75;1695309;84;21696;-89
2021/04/21 12:34:24;;;;;;;3.92;2.90;;;;;;;12.01;70.93;97076.84;1710353;84;21334;-87
2021/04/21 12:36:54;;;;;;;3.77;3.17;;;;;;;12.22;70.93;97072.81;1702466;84;21282;-91
2021/04/21 12:39:25;;;;;;;3.20;2.47;;;;;;;12.41;70.13;97074.66;1695615;84;21250;-91
2021/04/21 12:42:00;;;;;;;5.33;2.40;;;;;;;12.49;69.26;97062.92;1709233;84;21309;-90